sensor_id;sensor_type;location;lat;lon;timestamp;P1;durP1;ratioP1;P2;durP2;ratioP2
54193;SDS011;40102;50.906;6.972;2023-01-23T00:01:04;12.40;;;6.40;;
54193;SDS011;40102;50.906;6.972;2023-01-23T00:03:32;14.40;;;7.47;;
54193;SDS011;40102;50.906;6.972;2023-01-23T00:06:11;15.45;;;7.45;;
54193;SDS011;40102;50.906;6.972;2023-01-23T00:08:38;14.97;;;7.30;;
54193;SDS011;40102;50.906;6.972;2023-01-23T00:11:04;15.95;;;7.90;;
54193;SDS011;40102;50.906;6.972;2023-01-23T00:13:31;16.63;;;8.00;;
54193;SDS011;40102;50.906;6.972;2023-01-23T00:15:57;17.10;;;8.10;;
54193;SDS011;40102;50.906;6.972;2023-01-23T00:18:22;15.50;;;7.72;;
54193;SDS011;40102;50.906;6.972;2023-01-23T00:20:47;16.02;;;8.27;;
54193;SDS011;40102;50.906;6.972;2023-01-23T00:23:13;14.70;;;7.75;;
54193;SDS011;40102;50.906;6.972;2023-01-23T00:25:38;14.98;;;7.25;;
54193;SDS011;40102;50.906;6.972;2023-01-23T00:28:04;18.80;;;8.55;;
54193;SDS011;40102;50.906;6.972;2023-01-23T00:30:29;15.20;;;7.32;;
54193;SDS011;40102;50.906;6.972;2023-01-23T00:32:54;14.45;;;6.78;;
54193;SDS011;40102;50.906;6.972;2023-01-23T00:35:20;16.45;;;7.70;;
54193;SDS011;40102;50.906;6.972;2023-01-23T00:37:45;12.90;;;7.00;;
54193;SDS011;40102;50.906;6.972;2023-01-23T00:40:11;14.40;;;6.53;;
54193;SDS011;40102;50.906;6.972;2023-01-23T00:42:37;14.98;;;7.30;;
54193;SDS011;40102;50.906;6.972;2023-01-23T00:45:02;16.38;;;7.90;;
54193;SDS011;40102;50.906;6.972;2023-01-23T00:47:28;13.75;;;7.28;;
54193;SDS011;40102;50.906;6.972;2023-01-23T00:49:54;14.68;;;7.00;;
54193;SDS011;40102;50.906;6.972;2023-01-23T00:52:21;15.80;;;8.00;;
54193;SDS011;40102;50.906;6.972;2023-01-23T00:54:47;15.15;;;7.75;;
54193;SDS011;40102;50.906;6.972;2023-01-23T00:57:12;13.35;;;6.82;;
54193;SDS011;40102;50.906;6.972;2023-01-23T00:59:37;14.18;;;6.88;;
54193;SDS011;40102;50.906;6.972;2023-01-23T01:02:03;14.55;;;6.40;;
54193;SDS011;40102;50.906;6.972;2023-01-23T01:04:28;14.75;;;7.55;;
54193;SDS011;40102;50.906;6.972;2023-01-23T01:06:54;16.08;;;7.53;;
54193;SDS011;40102;50.906;6.972;2023-01-23T01:09:19;15.13;;;7.47;;
54193;SDS011;40102;50.906;6.972;2023-01-23T01:11:45;15.57;;;7.78;;
54193;SDS011;40102;50.906;6.972;2023-01-23T01:14:10;14.35;;;7.03;;
54193;SDS011;40102;50.906;6.972;2023-01-23T01:16:35;15.32;;;7.20;;
54193;SDS011;40102;50.906;6.972;2023-01-23T01:19:01;13.70;;;7.53;;
54193;SDS011;40102;50.906;6.972;2023-01-23T01:21:27;15.35;;;6.90;;
54193;SDS011;40102;50.906;6.972;2023-01-23T01:23:54;12.40;;;6.78;;
54193;SDS011;40102;50.906;6.972;2023-01-23T01:26:19;17.70;;;7.57;;
54193;SDS011;40102;50.906;6.972;2023-01-23T01:28:47;15.27;;;7.25;;
54193;SDS011;40102;50.906;6.972;2023-01-23T01:31:13;15.90;;;8.50;;
54193;SDS011;40102;50.906;6.972;2023-01-23T01:33:40;15.90;;;7.40;;
54193;SDS011;40102;50.906;6.972;2023-01-23T01:36:14;16.70;;;7.65;;
54193;SDS011;40102;50.906;6.972;2023-01-23T01:38:41;17.98;;;7.82;;
54193;SDS011;40102;50.906;6.972;2023-01-23T01:41:07;17.42;;;7.82;;
54193;SDS011;40102;50.906;6.972;2023-01-23T01:43:34;14.68;;;7.47;;
54193;SDS011;40102;50.906;6.972;2023-01-23T01:57:00;15.10;;;7.25;;
54193;SDS011;40102;50.906;6.972;2023-01-23T01:59:29;16.40;;;7.82;;
54193;SDS011;40102;50.906;6.972;2023-01-23T02:02:02;16.48;;;8.52;;
54193;SDS011;40102;50.906;6.972;2023-01-23T02:04:34;14.65;;;7.28;;
54193;SDS011;40102;50.906;6.972;2023-01-23T02:07:04;14.27;;;7.00;;
54193;SDS011;40102;50.906;6.972;2023-01-23T02:09:33;15.73;;;7.80;;
54193;SDS011;40102;50.906;6.972;2023-01-23T02:12:02;14.20;;;7.40;;
54193;SDS011;40102;50.906;6.972;2023-01-23T02:14:28;14.30;;;7.80;;
54193;SDS011;40102;50.906;6.972;2023-01-23T02:16:53;14.55;;;7.20;;
54193;SDS011;40102;50.906;6.972;2023-01-23T02:19:35;15.60;;;7.45;;
54193;SDS011;40102;50.906;6.972;2023-01-23T02:27:50;15.18;;;7.53;;
54193;SDS011;40102;50.906;6.972;2023-01-23T02:30:16;15.50;;;7.55;;
54193;SDS011;40102;50.906;6.972;2023-01-23T02:32:43;17.83;;;8.02;;
54193;SDS011;40102;50.906;6.972;2023-01-23T02:35:10;17.33;;;7.80;;
54193;SDS011;40102;50.906;6.972;2023-01-23T02:37:44;17.83;;;8.27;;
54193;SDS011;40102;50.906;6.972;2023-01-23T02:40:11;15.23;;;7.53;;
54193;SDS011;40102;50.906;6.972;2023-01-23T02:42:38;17.27;;;8.27;;
54193;SDS011;40102;50.906;6.972;2023-01-23T02:45:07;13.43;;;7.17;;
54193;SDS011;40102;50.906;6.972;2023-01-23T02:47:33;14.63;;;6.72;;
54193;SDS011;40102;50.906;6.972;2023-01-23T02:49:59;15.30;;;7.93;;
54193;SDS011;40102;50.906;6.972;2023-01-23T02:52:24;16.45;;;7.50;;
54193;SDS011;40102;50.906;6.972;2023-01-23T02:54:49;18.42;;;8.00;;
54193;SDS011;40102;50.906;6.972;2023-01-23T02:57:15;15.60;;;7.90;;
54193;SDS011;40102;50.906;6.972;2023-01-23T02:59:40;16.33;;;7.22;;
54193;SDS011;40102;50.906;6.972;2023-01-23T03:02:24;16.20;;;7.97;;
54193;SDS011;40102;50.906;6.972;2023-01-23T03:04:50;16.27;;;8.40;;
54193;SDS011;40102;50.906;6.972;2023-01-23T03:07:16;16.63;;;8.02;;
54193;SDS011;40102;50.906;6.972;2023-01-23T03:09:42;15.45;;;7.43;;
54193;SDS011;40102;50.906;6.972;2023-01-23T03:12:10;15.00;;;7.43;;
54193;SDS011;40102;50.906;6.972;2023-01-23T03:14:35;17.17;;;8.48;;
54193;SDS011;40102;50.906;6.972;2023-01-23T03:17:01;14.73;;;7.50;;
54193;SDS011;40102;50.906;6.972;2023-01-23T03:19:26;17.50;;;7.88;;
54193;SDS011;40102;50.906;6.972;2023-01-23T03:21:52;15.07;;;7.85;;
54193;SDS011;40102;50.906;6.972;2023-01-23T03:24:19;15.27;;;7.40;;
54193;SDS011;40102;50.906;6.972;2023-01-23T03:26:45;13.60;;;6.97;;
54193;SDS011;40102;50.906;6.972;2023-01-23T03:29:22;13.85;;;7.03;;
54193;SDS011;40102;50.906;6.972;2023-01-23T03:32:07;13.07;;;6.82;;
54193;SDS011;40102;50.906;6.972;2023-01-23T03:34:33;13.95;;;6.65;;
54193;SDS011;40102;50.906;6.972;2023-01-23T03:36:59;13.20;;;6.60;;
54193;SDS011;40102;50.906;6.972;2023-01-23T03:39:25;16.33;;;7.75;;
54193;SDS011;40102;50.906;6.972;2023-01-23T03:42:09;14.38;;;6.93;;
54193;SDS011;40102;50.906;6.972;2023-01-23T03:44:35;14.68;;;7.53;;
54193;SDS011;40102;50.906;6.972;2023-01-23T03:47:00;13.07;;;6.90;;
54193;SDS011;40102;50.906;6.972;2023-01-23T03:49:26;14.65;;;7.22;;
54193;SDS011;40102;50.906;6.972;2023-01-23T03:51:51;15.18;;;7.30;;
54193;SDS011;40102;50.906;6.972;2023-01-23T03:54:17;12.95;;;6.55;;
54193;SDS011;40102;50.906;6.972;2023-01-23T03:56:42;16.65;;;8.15;;
54193;SDS011;40102;50.906;6.972;2023-01-23T03:59:08;19.55;;;9.18;;
54193;SDS011;40102;50.906;6.972;2023-01-23T04:01:34;17.55;;;8.57;;
54193;SDS011;40102;50.906;6.972;2023-01-23T04:04:00;17.73;;;8.55;;
54193;SDS011;40102;50.906;6.972;2023-01-23T04:06:26;15.82;;;7.90;;
54193;SDS011;40102;50.906;6.972;2023-01-23T04:08:52;15.93;;;8.18;;
54193;SDS011;40102;50.906;6.972;2023-01-23T04:11:18;16.67;;;7.95;;
54193;SDS011;40102;50.906;6.972;2023-01-23T04:13:44;15.18;;;7.63;;
54193;SDS011;40102;50.906;6.972;2023-01-23T04:16:10;15.15;;;8.02;;
54193;SDS011;40102;50.906;6.972;2023-01-23T04:18:37;15.95;;;7.82;;
54193;SDS011;40102;50.906;6.972;2023-01-23T04:21:03;16.15;;;7.32;;
54193;SDS011;40102;50.906;6.972;2023-01-23T04:23:28;14.18;;;7.07;;
54193;SDS011;40102;50.906;6.972;2023-01-23T04:25:54;16.02;;;7.63;;
54193;SDS011;40102;50.906;6.972;2023-01-23T04:28:20;15.90;;;7.15;;
54193;SDS011;40102;50.906;6.972;2023-01-23T04:30:45;14.40;;;7.18;;
54193;SDS011;40102;50.906;6.972;2023-01-23T04:33:11;14.90;;;7.45;;
54193;SDS011;40102;50.906;6.972;2023-01-23T04:35:36;15.43;;;7.65;;
54193;SDS011;40102;50.906;6.972;2023-01-23T04:38:02;15.90;;;7.88;;
54193;SDS011;40102;50.906;6.972;2023-01-23T04:40:27;12.00;;;6.47;;
54193;SDS011;40102;50.906;6.972;2023-01-23T04:42:53;14.73;;;7.15;;
54193;SDS011;40102;50.906;6.972;2023-01-23T04:45:18;13.85;;;7.65;;
54193;SDS011;40102;50.906;6.972;2023-01-23T04:47:44;14.60;;;7.55;;
54193;SDS011;40102;50.906;6.972;2023-01-23T04:50:09;14.40;;;7.28;;
54193;SDS011;40102;50.906;6.972;2023-01-23T04:52:35;15.70;;;7.90;;
54193;SDS011;40102;50.906;6.972;2023-01-23T04:55:00;14.80;;;7.63;;
54193;SDS011;40102;50.906;6.972;2023-01-23T04:57:26;14.93;;;7.45;;
54193;SDS011;40102;50.906;6.972;2023-01-23T04:59:52;17.10;;;8.02;;
54193;SDS011;40102;50.906;6.972;2023-01-23T05:02:17;16.13;;;7.95;;
54193;SDS011;40102;50.906;6.972;2023-01-23T05:04:42;15.23;;;7.63;;
54193;SDS011;40102;50.906;6.972;2023-01-23T05:07:09;15.48;;;7.57;;
54193;SDS011;40102;50.906;6.972;2023-01-23T05:09:36;14.18;;;7.18;;
54193;SDS011;40102;50.906;6.972;2023-01-23T05:12:03;15.50;;;7.97;;
54193;SDS011;40102;50.906;6.972;2023-01-23T05:14:29;12.93;;;6.72;;
54193;SDS011;40102;50.906;6.972;2023-01-23T05:16:54;14.50;;;7.55;;
54193;SDS011;40102;50.906;6.972;2023-01-23T05:19:20;15.25;;;7.68;;
54193;SDS011;40102;50.906;6.972;2023-01-23T05:21:45;14.25;;;7.07;;
54193;SDS011;40102;50.906;6.972;2023-01-23T05:24:11;13.27;;;6.47;;
54193;SDS011;40102;50.906;6.972;2023-01-23T05:26:36;13.77;;;7.03;;
54193;SDS011;40102;50.906;6.972;2023-01-23T05:29:02;15.68;;;7.55;;
54193;SDS011;40102;50.906;6.972;2023-01-23T05:31:27;16.77;;;7.90;;
54193;SDS011;40102;50.906;6.972;2023-01-23T05:33:53;17.23;;;8.38;;
54193;SDS011;40102;50.906;6.972;2023-01-23T05:36:18;18.45;;;8.73;;
54193;SDS011;40102;50.906;6.972;2023-01-23T05:38:43;17.08;;;8.65;;
54193;SDS011;40102;50.906;6.972;2023-01-23T05:41:09;14.30;;;6.88;;
54193;SDS011;40102;50.906;6.972;2023-01-23T05:43:34;13.88;;;6.63;;
54193;SDS011;40102;50.906;6.972;2023-01-23T05:46:00;11.70;;;6.60;;
54193;SDS011;40102;50.906;6.972;2023-01-23T05:48:26;13.82;;;7.18;;
54193;SDS011;40102;50.906;6.972;2023-01-23T05:50:51;12.77;;;6.65;;
54193;SDS011;40102;50.906;6.972;2023-01-23T05:53:17;14.75;;;6.80;;
54193;SDS011;40102;50.906;6.972;2023-01-23T05:55:42;14.02;;;7.68;;
54193;SDS011;40102;50.906;6.972;2023-01-23T05:58:08;14.15;;;6.68;;
54193;SDS011;40102;50.906;6.972;2023-01-23T06:00:33;14.80;;;7.25;;
54193;SDS011;40102;50.906;6.972;2023-01-23T06:02:59;15.02;;;7.30;;
54193;SDS011;40102;50.906;6.972;2023-01-23T06:05:25;15.85;;;6.95;;
54193;SDS011;40102;50.906;6.972;2023-01-23T06:07:50;17.80;;;8.32;;
54193;SDS011;40102;50.906;6.972;2023-01-23T06:10:16;15.30;;;7.50;;
54193;SDS011;40102;50.906;6.972;2023-01-23T06:12:41;14.07;;;6.72;;
54193;SDS011;40102;50.906;6.972;2023-01-23T06:15:07;12.15;;;6.43;;
54193;SDS011;40102;50.906;6.972;2023-01-23T06:17:33;13.55;;;7.13;;
54193;SDS011;40102;50.906;6.972;2023-01-23T06:19:58;13.85;;;7.32;;
54193;SDS011;40102;50.906;6.972;2023-01-23T06:22:24;12.52;;;6.70;;
54193;SDS011;40102;50.906;6.972;2023-01-23T06:24:49;17.52;;;7.68;;
54193;SDS011;40102;50.906;6.972;2023-01-23T06:27:19;18.00;;;8.00;;
54193;SDS011;40102;50.906;6.972;2023-01-23T06:29:44;18.63;;;8.40;;
54193;SDS011;40102;50.906;6.972;2023-01-23T06:32:10;17.50;;;8.23;;
54193;SDS011;40102;50.906;6.972;2023-01-23T06:34:35;18.58;;;9.07;;
54193;SDS011;40102;50.906;6.972;2023-01-23T06:37:01;17.63;;;8.50;;
54193;SDS011;40102;50.906;6.972;2023-01-23T06:39:27;15.63;;;7.53;;
54193;SDS011;40102;50.906;6.972;2023-01-23T06:41:54;13.38;;;6.78;;
54193;SDS011;40102;50.906;6.972;2023-01-23T06:44:19;17.35;;;7.90;;
54193;SDS011;40102;50.906;6.972;2023-01-23T06:46:45;12.80;;;6.85;;
54193;SDS011;40102;50.906;6.972;2023-01-23T06:49:10;15.27;;;6.20;;
54193;SDS011;40102;50.906;6.972;2023-01-23T06:51:35;17.77;;;7.97;;
54193;SDS011;40102;50.906;6.972;2023-01-23T06:54:01;12.85;;;6.53;;
54193;SDS011;40102;50.906;6.972;2023-01-23T06:56:26;13.30;;;7.28;;
54193;SDS011;40102;50.906;6.972;2023-01-23T06:58:55;13.27;;;7.25;;
54193;SDS011;40102;50.906;6.972;2023-01-23T07:01:20;12.20;;;6.35;;
54193;SDS011;40102;50.906;6.972;2023-01-23T07:03:46;13.25;;;6.78;;
54193;SDS011;40102;50.906;6.972;2023-01-23T07:06:12;14.40;;;7.10;;
54193;SDS011;40102;50.906;6.972;2023-01-23T07:08:39;13.90;;;6.93;;
54193;SDS011;40102;50.906;6.972;2023-01-23T07:11:05;12.73;;;7.00;;
54193;SDS011;40102;50.906;6.972;2023-01-23T07:13:31;18.50;;;8.35;;
54193;SDS011;40102;50.906;6.972;2023-01-23T07:15:57;15.50;;;7.88;;
54193;SDS011;40102;50.906;6.972;2023-01-23T07:18:22;15.95;;;7.85;;
54193;SDS011;40102;50.906;6.972;2023-01-23T07:20:49;14.15;;;7.22;;
54193;SDS011;40102;50.906;6.972;2023-01-23T07:23:15;14.68;;;7.75;;
54193;SDS011;40102;50.906;6.972;2023-01-23T07:25:41;16.13;;;7.47;;
54193;SDS011;40102;50.906;6.972;2023-01-23T07:28:06;13.40;;;6.55;;
54193;SDS011;40102;50.906;6.972;2023-01-23T07:30:32;13.52;;;7.38;;
54193;SDS011;40102;50.906;6.972;2023-01-23T07:32:58;16.02;;;7.85;;
54193;SDS011;40102;50.906;6.972;2023-01-23T07:35:23;15.75;;;7.97;;
54193;SDS011;40102;50.906;6.972;2023-01-23T07:37:49;16.35;;;8.23;;
54193;SDS011;40102;50.906;6.972;2023-01-23T07:40:15;14.15;;;7.15;;
54193;SDS011;40102;50.906;6.972;2023-01-23T07:42:40;13.82;;;6.72;;
54193;SDS011;40102;50.906;6.972;2023-01-23T07:45:06;13.65;;;6.50;;
54193;SDS011;40102;50.906;6.972;2023-01-23T07:47:33;17.30;;;8.32;;
54193;SDS011;40102;50.906;6.972;2023-01-23T07:50:00;14.30;;;7.30;;
54193;SDS011;40102;50.906;6.972;2023-01-23T07:52:26;14.45;;;7.30;;
54193;SDS011;40102;50.906;6.972;2023-01-23T07:54:51;15.02;;;7.68;;
54193;SDS011;40102;50.906;6.972;2023-01-23T07:57:16;12.77;;;7.13;;
54193;SDS011;40102;50.906;6.972;2023-01-23T07:59:42;16.77;;;7.82;;
54193;SDS011;40102;50.906;6.972;2023-01-23T08:02:08;16.25;;;6.93;;
54193;SDS011;40102;50.906;6.972;2023-01-23T08:04:35;16.10;;;7.25;;
54193;SDS011;40102;50.906;6.972;2023-01-23T08:07:00;12.27;;;7.03;;
54193;SDS011;40102;50.906;6.972;2023-01-23T08:09:26;14.82;;;7.25;;
54193;SDS011;40102;50.906;6.972;2023-01-23T08:11:52;12.52;;;6.93;;
54193;SDS011;40102;50.906;6.972;2023-01-23T08:14:17;14.20;;;6.95;;
54193;SDS011;40102;50.906;6.972;2023-01-23T08:16:43;13.38;;;6.93;;
54193;SDS011;40102;50.906;6.972;2023-01-23T08:19:08;12.57;;;6.93;;
54193;SDS011;40102;50.906;6.972;2023-01-23T08:21:34;14.93;;;7.13;;
54193;SDS011;40102;50.906;6.972;2023-01-23T08:24:00;13.77;;;6.97;;
54193;SDS011;40102;50.906;6.972;2023-01-23T08:26:26;14.90;;;6.90;;
54193;SDS011;40102;50.906;6.972;2023-01-23T08:28:52;13.02;;;6.45;;
54193;SDS011;40102;50.906;6.972;2023-01-23T08:31:18;13.70;;;6.72;;
54193;SDS011;40102;50.906;6.972;2023-01-23T08:33:43;14.95;;;7.25;;
54193;SDS011;40102;50.906;6.972;2023-01-23T08:36:10;13.77;;;7.47;;
54193;SDS011;40102;50.906;6.972;2023-01-23T08:38:37;13.77;;;7.05;;
54193;SDS011;40102;50.906;6.972;2023-01-23T08:41:02;12.00;;;6.57;;
54193;SDS011;40102;50.906;6.972;2023-01-23T08:43:28;13.15;;;6.80;;
54193;SDS011;40102;50.906;6.972;2023-01-23T08:45:55;13.13;;;7.18;;
54193;SDS011;40102;50.906;6.972;2023-01-23T08:48:22;15.48;;;7.90;;
54193;SDS011;40102;50.906;6.972;2023-01-23T08:50:50;15.38;;;7.43;;
54193;SDS011;40102;50.906;6.972;2023-01-23T08:53:24;12.15;;;6.45;;
54193;SDS011;40102;50.906;6.972;2023-01-23T08:55:50;14.43;;;7.20;;
54193;SDS011;40102;50.906;6.972;2023-01-23T08:58:15;13.20;;;7.20;;
54193;SDS011;40102;50.906;6.972;2023-01-23T09:00:40;13.85;;;6.82;;
54193;SDS011;40102;50.906;6.972;2023-01-23T09:03:06;13.20;;;6.80;;
54193;SDS011;40102;50.906;6.972;2023-01-23T09:05:34;15.75;;;7.78;;
54193;SDS011;40102;50.906;6.972;2023-01-23T09:08:02;14.15;;;7.20;;
54193;SDS011;40102;50.906;6.972;2023-01-23T09:10:28;14.02;;;7.28;;
54193;SDS011;40102;50.906;6.972;2023-01-23T09:12:53;13.25;;;6.70;;
54193;SDS011;40102;50.906;6.972;2023-01-23T09:15:19;15.25;;;7.60;;
54193;SDS011;40102;50.906;6.972;2023-01-23T09:17:46;14.85;;;7.45;;
54193;SDS011;40102;50.906;6.972;2023-01-23T09:20:12;14.85;;;7.28;;
54193;SDS011;40102;50.906;6.972;2023-01-23T09:22:37;15.30;;;7.18;;
54193;SDS011;40102;50.906;6.972;2023-01-23T09:25:03;12.60;;;7.15;;
54193;SDS011;40102;50.906;6.972;2023-01-23T09:27:29;13.48;;;6.82;;
54193;SDS011;40102;50.906;6.972;2023-01-23T09:29:55;13.10;;;6.28;;
54193;SDS011;40102;50.906;6.972;2023-01-23T09:32:20;13.15;;;6.13;;
54193;SDS011;40102;50.906;6.972;2023-01-23T09:34:49;16.48;;;7.63;;
54193;SDS011;40102;50.906;6.972;2023-01-23T09:37:14;13.43;;;6.10;;
54193;SDS011;40102;50.906;6.972;2023-01-23T09:39:43;13.57;;;6.75;;
54193;SDS011;40102;50.906;6.972;2023-01-23T09:42:13;14.63;;;7.35;;
54193;SDS011;40102;50.906;6.972;2023-01-23T09:44:52;12.40;;;6.35;;
54193;SDS011;40102;50.906;6.972;2023-01-23T09:47:22;12.32;;;6.38;;
54193;SDS011;40102;50.906;6.972;2023-01-23T09:52:43;13.07;;;6.28;;
54193;SDS011;40102;50.906;6.972;2023-01-23T09:55:17;12.32;;;6.78;;
54193;SDS011;40102;50.906;6.972;2023-01-23T09:57:53;11.82;;;5.70;;
54193;SDS011;40102;50.906;6.972;2023-01-23T10:00:24;11.60;;;6.13;;
54193;SDS011;40102;50.906;6.972;2023-01-23T10:02:53;11.65;;;6.20;;
54193;SDS011;40102;50.906;6.972;2023-01-23T10:05:20;10.73;;;5.82;;
54193;SDS011;40102;50.906;6.972;2023-01-23T10:10:58;8.80;;;4.70;;
54193;SDS011;40102;50.906;6.972;2023-01-23T10:13:38;9.55;;;5.10;;
54193;SDS011;40102;50.906;6.972;2023-01-23T10:21:43;9.32;;;4.88;;
54193;SDS011;40102;50.906;6.972;2023-01-23T10:24:29;12.80;;;5.95;;
54193;SDS011;40102;50.906;6.972;2023-01-23T10:26:58;14.15;;;6.20;;
54193;SDS011;40102;50.906;6.972;2023-01-23T10:29:36;11.40;;;5.90;;
54193;SDS011;40102;50.906;6.972;2023-01-23T10:32:12;12.65;;;6.30;;
54193;SDS011;40102;50.906;6.972;2023-01-23T10:34:47;12.10;;;6.15;;
54193;SDS011;40102;50.906;6.972;2023-01-23T10:40:11;14.35;;;7.30;;
54193;SDS011;40102;50.906;6.972;2023-01-23T10:42:36;14.02;;;6.75;;
54193;SDS011;40102;50.906;6.972;2023-01-23T10:45:02;15.23;;;7.32;;
54193;SDS011;40102;50.906;6.972;2023-01-23T10:47:30;12.70;;;6.47;;
54193;SDS011;40102;50.906;6.972;2023-01-23T10:49:59;9.43;;;5.13;;
54193;SDS011;40102;50.906;6.972;2023-01-23T10:52:35;10.32;;;5.63;;
54193;SDS011;40102;50.906;6.972;2023-01-23T10:57:51;13.10;;;5.97;;
54193;SDS011;40102;50.906;6.972;2023-01-23T11:00:24;10.45;;;5.22;;
54193;SDS011;40102;50.906;6.972;2023-01-23T11:02:50;10.65;;;5.15;;
54193;SDS011;40102;50.906;6.972;2023-01-23T11:05:30;11.52;;;5.90;;
54193;SDS011;40102;50.906;6.972;2023-01-23T11:08:20;13.57;;;6.85;;
54193;SDS011;40102;50.906;6.972;2023-01-23T11:13:44;12.77;;;6.35;;
54193;SDS011;40102;50.906;6.972;2023-01-23T11:16:15;16.75;;;6.28;;
54193;SDS011;40102;50.906;6.972;2023-01-23T11:18:46;12.00;;;5.93;;
54193;SDS011;40102;50.906;6.972;2023-01-23T11:21:25;10.43;;;5.72;;
54193;SDS011;40102;50.906;6.972;2023-01-23T11:24:07;10.23;;;4.93;;
54193;SDS011;40102;50.906;6.972;2023-01-23T11:26:33;10.75;;;5.30;;
54193;SDS011;40102;50.906;6.972;2023-01-23T11:29:00;8.98;;;4.82;;
54193;SDS011;40102;50.906;6.972;2023-01-23T11:31:26;9.48;;;4.68;;
54193;SDS011;40102;50.906;6.972;2023-01-23T11:39:21;8.02;;;4.78;;
54193;SDS011;40102;50.906;6.972;2023-01-23T11:42:11;8.73;;;4.50;;
54193;SDS011;40102;50.906;6.972;2023-01-23T11:44:38;7.50;;;3.90;;
54193;SDS011;40102;50.906;6.972;2023-01-23T12:00:42;7.13;;;4.18;;
54193;SDS011;40102;50.906;6.972;2023-01-23T12:10:52;7.43;;;4.20;;
54193;SDS011;40102;50.906;6.972;2023-01-23T12:27:42;6.82;;;3.90;;
54193;SDS011;40102;50.906;6.972;2023-01-23T12:35:45;5.50;;;3.25;;
54193;SDS011;40102;50.906;6.972;2023-01-23T12:40:58;5.47;;;3.47;;
54193;SDS011;40102;50.906;6.972;2023-01-23T12:49:56;5.68;;;3.13;;
54193;SDS011;40102;50.906;6.972;2023-01-23T12:55:05;7.22;;;3.50;;
54193;SDS011;40102;50.906;6.972;2023-01-23T12:57:38;5.25;;;3.25;;
54193;SDS011;40102;50.906;6.972;2023-01-23T13:05:33;5.68;;;3.10;;
54193;SDS011;40102;50.906;6.972;2023-01-23T13:08:16;6.60;;;3.13;;
54193;SDS011;40102;50.906;6.972;2023-01-23T13:16:44;5.22;;;3.33;;
54193;SDS011;40102;50.906;6.972;2023-01-23T13:19:28;5.13;;;3.28;;
54193;SDS011;40102;50.906;6.972;2023-01-23T13:25:01;6.47;;;2.60;;
54193;SDS011;40102;50.906;6.972;2023-01-23T13:27:40;6.68;;;3.10;;
54193;SDS011;40102;50.906;6.972;2023-01-23T13:30:35;5.40;;;3.10;;
54193;SDS011;40102;50.906;6.972;2023-01-23T13:32:56;5.93;;;3.28;;
54193;SDS011;40102;50.906;6.972;2023-01-23T13:43:41;5.28;;;3.28;;
54193;SDS011;40102;50.906;6.972;2023-01-23T13:48:56;5.28;;;3.42;;
54193;SDS011;40102;50.906;6.972;2023-01-23T13:52:00;5.45;;;3.05;;
54193;SDS011;40102;50.906;6.972;2023-01-23T13:54:47;6.20;;;3.28;;
54193;SDS011;40102;50.906;6.972;2023-01-23T13:57:31;6.22;;;3.50;;
54193;SDS011;40102;50.906;6.972;2023-01-23T13:59:57;5.03;;;3.20;;
54193;SDS011;40102;50.906;6.972;2023-01-23T14:02:30;5.63;;;3.83;;
54193;SDS011;40102;50.906;6.972;2023-01-23T14:05:21;5.95;;;3.40;;
54193;SDS011;40102;50.906;6.972;2023-01-23T14:07:59;7.63;;;3.47;;
54193;SDS011;40102;50.906;6.972;2023-01-23T14:10:28;5.20;;;3.20;;
54193;SDS011;40102;50.906;6.972;2023-01-23T14:13:08;5.88;;;3.28;;
54193;SDS011;40102;50.906;6.972;2023-01-23T14:15:37;5.50;;;3.22;;
54193;SDS011;40102;50.906;6.972;2023-01-23T14:18:32;11.55;;;4.30;;
54193;SDS011;40102;50.906;6.972;2023-01-23T14:21:05;7.78;;;3.78;;
54193;SDS011;40102;50.906;6.972;2023-01-23T14:23:42;6.13;;;3.28;;
54193;SDS011;40102;50.906;6.972;2023-01-23T14:26:09;4.70;;;3.00;;
54193;SDS011;40102;50.906;6.972;2023-01-23T14:28:39;4.57;;;2.70;;
54193;SDS011;40102;50.906;6.972;2023-01-23T14:31:05;6.20;;;3.33;;
54193;SDS011;40102;50.906;6.972;2023-01-23T14:33:44;5.32;;;3.05;;
54193;SDS011;40102;50.906;6.972;2023-01-23T14:36:16;4.80;;;2.88;;
54193;SDS011;40102;50.906;6.972;2023-01-23T14:38:44;4.75;;;3.17;;
54193;SDS011;40102;50.906;6.972;2023-01-23T14:41:10;5.40;;;3.15;;
54193;SDS011;40102;50.906;6.972;2023-01-23T14:43:36;6.35;;;3.95;;
54193;SDS011;40102;50.906;6.972;2023-01-23T14:46:36;5.57;;;3.85;;
54193;SDS011;40102;50.906;6.972;2023-01-23T14:49:08;5.70;;;3.35;;
54193;SDS011;40102;50.906;6.972;2023-01-23T14:51:34;6.70;;;3.72;;
54193;SDS011;40102;50.906;6.972;2023-01-23T14:54:18;6.38;;;3.70;;
54193;SDS011;40102;50.906;6.972;2023-01-23T14:56:44;6.65;;;3.75;;
54193;SDS011;40102;50.906;6.972;2023-01-23T14:59:16;6.35;;;3.78;;
54193;SDS011;40102;50.906;6.972;2023-01-23T15:01:51;6.80;;;3.80;;
54193;SDS011;40102;50.906;6.972;2023-01-23T15:04:24;7.65;;;3.60;;
54193;SDS011;40102;50.906;6.972;2023-01-23T15:06:55;8.27;;;4.25;;
54193;SDS011;40102;50.906;6.972;2023-01-23T15:09:27;6.07;;;3.53;;
54193;SDS011;40102;50.906;6.972;2023-01-23T15:11:53;5.28;;;2.78;;
54193;SDS011;40102;50.906;6.972;2023-01-23T15:14:24;5.25;;;3.40;;
54193;SDS011;40102;50.906;6.972;2023-01-23T15:17:00;5.78;;;3.70;;
54193;SDS011;40102;50.906;6.972;2023-01-23T15:19:27;6.28;;;3.10;;
54193;SDS011;40102;50.906;6.972;2023-01-23T15:24:44;5.78;;;3.42;;
54193;SDS011;40102;50.906;6.972;2023-01-23T15:27:24;7.43;;;3.83;;
54193;SDS011;40102;50.906;6.972;2023-01-23T15:29:49;6.15;;;3.85;;
54193;SDS011;40102;50.906;6.972;2023-01-23T15:32:16;5.22;;;3.47;;
54193;SDS011;40102;50.906;6.972;2023-01-23T15:34:51;7.00;;;3.95;;
54193;SDS011;40102;50.906;6.972;2023-01-23T15:37:20;6.82;;;3.88;;
54193;SDS011;40102;50.906;6.972;2023-01-23T15:39:58;7.22;;;4.32;;
54193;SDS011;40102;50.906;6.972;2023-01-23T15:42:32;8.30;;;4.47;;
54193;SDS011;40102;50.906;6.972;2023-01-23T15:47:28;6.10;;;3.78;;
54193;SDS011;40102;50.906;6.972;2023-01-23T15:49:54;8.02;;;4.35;;
54193;SDS011;40102;50.906;6.972;2023-01-23T15:52:22;7.30;;;4.40;;
54193;SDS011;40102;50.906;6.972;2023-01-23T15:54:49;8.50;;;4.43;;
54193;SDS011;40102;50.906;6.972;2023-01-23T15:57:17;8.48;;;4.53;;
54193;SDS011;40102;50.906;6.972;2023-01-23T15:59:43;9.95;;;5.38;;
54193;SDS011;40102;50.906;6.972;2023-01-23T16:02:14;6.97;;;4.28;;
54193;SDS011;40102;50.906;6.972;2023-01-23T16:04:42;8.52;;;4.65;;
54193;SDS011;40102;50.906;6.972;2023-01-23T16:07:15;9.15;;;4.53;;
54193;SDS011;40102;50.906;6.972;2023-01-23T16:09:45;11.55;;;5.40;;
54193;SDS011;40102;50.906;6.972;2023-01-23T16:12:14;7.63;;;4.80;;
54193;SDS011;40102;50.906;6.972;2023-01-23T16:14:44;10.02;;;4.80;;
54193;SDS011;40102;50.906;6.972;2023-01-23T16:17:10;8.50;;;4.88;;
54193;SDS011;40102;50.906;6.972;2023-01-23T16:19:35;10.02;;;5.93;;
54193;SDS011;40102;50.906;6.972;2023-01-23T16:22:01;13.07;;;5.97;;
54193;SDS011;40102;50.906;6.972;2023-01-23T16:24:35;11.00;;;5.65;;
54193;SDS011;40102;50.906;6.972;2023-01-23T16:27:03;10.05;;;5.65;;
54193;SDS011;40102;50.906;6.972;2023-01-23T16:29:29;12.77;;;7.05;;
54193;SDS011;40102;50.906;6.972;2023-01-23T16:31:56;13.63;;;7.85;;
54193;SDS011;40102;50.906;6.972;2023-01-23T16:34:23;13.38;;;6.90;;
54193;SDS011;40102;50.906;6.972;2023-01-23T16:36:50;12.25;;;6.97;;
54193;SDS011;40102;50.906;6.972;2023-01-23T16:39:18;14.27;;;7.50;;
54193;SDS011;40102;50.906;6.972;2023-01-23T16:41:47;11.40;;;6.03;;
54193;SDS011;40102;50.906;6.972;2023-01-23T16:44:14;15.35;;;7.43;;
54193;SDS011;40102;50.906;6.972;2023-01-23T16:46:42;15.13;;;8.52;;
54193;SDS011;40102;50.906;6.972;2023-01-23T16:49:11;14.05;;;7.78;;
54193;SDS011;40102;50.906;6.972;2023-01-23T16:51:37;14.40;;;7.18;;